sensor_id;sensor_type;location;lat;lon;timestamp;P1;durP1;ratioP1;P2;durP2;ratioP2
51780;SDS011;37844;57.126;24.288;2023-07-30T00:02:36;9.55;;;5.03;;
51780;SDS011;37844;57.126;24.288;2023-07-30T00:05:20;8.63;;;4.88;;
51780;SDS011;37844;57.126;24.288;2023-07-30T00:08:04;10.43;;;5.65;;
51780;SDS011;37844;57.126;24.288;2023-07-30T00:10:49;12.30;;;6.32;;
51780;SDS011;37844;57.126;24.288;2023-07-30T00:13:33;16.75;;;7.47;;
51780;SDS011;37844;57.126;24.288;2023-07-30T00:16:17;16.17;;;6.90;;
51780;SDS011;37844;57.126;24.288;2023-07-30T00:19:01;9.77;;;6.07;;
51780;SDS011;37844;57.126;24.288;2023-07-30T00:21:45;14.00;;;5.80;;
51780;SDS011;37844;57.126;24.288;2023-07-30T00:24:30;9.50;;;5.35;;
51780;SDS011;37844;57.126;24.288;2023-07-30T00:27:14;8.70;;;5.15;;
51780;SDS011;37844;57.126;24.288;2023-07-30T00:29:58;9.85;;;6.38;;
51780;SDS011;37844;57.126;24.288;2023-07-30T00:32:42;9.05;;;5.32;;
51780;SDS011;37844;57.126;24.288;2023-07-30T00:35:27;9.27;;;5.70;;
51780;SDS011;37844;57.126;24.288;2023-07-30T00:38:11;18.40;;;6.13;;
51780;SDS011;37844;57.126;24.288;2023-07-30T00:40:55;11.95;;;6.38;;
51780;SDS011;37844;57.126;24.288;2023-07-30T00:43:40;16.75;;;7.50;;
51780;SDS011;37844;57.126;24.288;2023-07-30T00:46:24;9.60;;;6.18;;
51780;SDS011;37844;57.126;24.288;2023-07-30T00:49:08;13.27;;;5.38;;
51780;SDS011;37844;57.126;24.288;2023-07-30T00:51:52;8.48;;;5.53;;
51780;SDS011;37844;57.126;24.288;2023-07-30T00:54:39;9.98;;;5.82;;
51780;SDS011;37844;57.126;24.288;2023-07-30T00:57:23;8.77;;;5.45;;
51780;SDS011;37844;57.126;24.288;2023-07-30T01:00:08;8.63;;;5.13;;
51780;SDS011;37844;57.126;24.288;2023-07-30T01:02:54;8.82;;;4.97;;
51780;SDS011;37844;57.126;24.288;2023-07-30T01:05:39;9.68;;;4.45;;
51780;SDS011;37844;57.126;24.288;2023-07-30T01:08:23;15.82;;;4.78;;
51780;SDS011;37844;57.126;24.288;2023-07-30T01:11:07;9.48;;;5.95;;
51780;SDS011;37844;57.126;24.288;2023-07-30T01:13:54;8.15;;;5.07;;
51780;SDS011;37844;57.126;24.288;2023-07-30T01:16:39;8.57;;;4.90;;
51780;SDS011;37844;57.126;24.288;2023-07-30T01:19:22;8.65;;;5.05;;
51780;SDS011;37844;57.126;24.288;2023-07-30T01:22:06;12.85;;;5.10;;
51780;SDS011;37844;57.126;24.288;2023-07-30T01:24:50;12.73;;;4.97;;
51780;SDS011;37844;57.126;24.288;2023-07-30T01:27:39;8.63;;;4.93;;
51780;SDS011;37844;57.126;24.288;2023-07-30T01:30:29;11.35;;;5.13;;
51780;SDS011;37844;57.126;24.288;2023-07-30T01:33:19;9.55;;;5.82;;
51780;SDS011;37844;57.126;24.288;2023-07-30T01:36:03;12.52;;;5.85;;
51780;SDS011;37844;57.126;24.288;2023-07-30T01:38:49;11.65;;;5.38;;
51780;SDS011;37844;57.126;24.288;2023-07-30T01:41:35;11.65;;;5.40;;
51780;SDS011;37844;57.126;24.288;2023-07-30T01:44:22;10.93;;;6.18;;
51780;SDS011;37844;57.126;24.288;2023-07-30T01:47:08;12.68;;;5.78;;
51780;SDS011;37844;57.126;24.288;2023-07-30T01:49:52;11.52;;;6.15;;
51780;SDS011;37844;57.126;24.288;2023-07-30T01:52:36;11.45;;;5.95;;
51780;SDS011;37844;57.126;24.288;2023-07-30T01:55:20;11.18;;;6.00;;
51780;SDS011;37844;57.126;24.288;2023-07-30T01:58:04;10.57;;;5.63;;
51780;SDS011;37844;57.126;24.288;2023-07-30T02:00:48;14.40;;;5.40;;
51780;SDS011;37844;57.126;24.288;2023-07-30T02:03:32;12.57;;;6.45;;
51780;SDS011;37844;57.126;24.288;2023-07-30T02:06:16;11.98;;;7.03;;
51780;SDS011;37844;57.126;24.288;2023-07-30T02:09:00;9.95;;;6.15;;
51780;SDS011;37844;57.126;24.288;2023-07-30T02:11:45;15.95;;;5.85;;
51780;SDS011;37844;57.126;24.288;2023-07-30T02:14:29;9.07;;;5.90;;
51780;SDS011;37844;57.126;24.288;2023-07-30T02:17:13;15.60;;;6.43;;
51780;SDS011;37844;57.126;24.288;2023-07-30T02:19:57;10.30;;;6.18;;
51780;SDS011;37844;57.126;24.288;2023-07-30T02:22:41;10.13;;;6.07;;
51780;SDS011;37844;57.126;24.288;2023-07-30T02:25:25;10.77;;;6.60;;
51780;SDS011;37844;57.126;24.288;2023-07-30T02:28:09;13.18;;;8.00;;
51780;SDS011;37844;57.126;24.288;2023-07-30T02:30:54;10.70;;;6.57;;
51780;SDS011;37844;57.126;24.288;2023-07-30T02:33:38;13.75;;;6.97;;
51780;SDS011;37844;57.126;24.288;2023-07-30T02:36:23;9.30;;;6.43;;
51780;SDS011;37844;57.126;24.288;2023-07-30T02:39:07;9.55;;;6.13;;
51780;SDS011;37844;57.126;24.288;2023-07-30T02:41:51;9.07;;;6.25;;
51780;SDS011;37844;57.126;24.288;2023-07-30T02:44:35;10.07;;;6.30;;
51780;SDS011;37844;57.126;24.288;2023-07-30T02:47:19;14.20;;;6.50;;
51780;SDS011;37844;57.126;24.288;2023-07-30T02:50:04;13.85;;;6.38;;
51780;SDS011;37844;57.126;24.288;2023-07-30T02:52:49;10.18;;;6.18;;
51780;SDS011;37844;57.126;24.288;2023-07-30T02:55:33;11.15;;;6.50;;
51780;SDS011;37844;57.126;24.288;2023-07-30T02:58:17;14.10;;;6.82;;
51780;SDS011;37844;57.126;24.288;2023-07-30T03:01:07;9.27;;;6.10;;
51780;SDS011;37844;57.126;24.288;2023-07-30T03:03:52;14.40;;;6.93;;
51780;SDS011;37844;57.126;24.288;2023-07-30T03:06:36;13.18;;;6.88;;
51780;SDS011;37844;57.126;24.288;2023-07-30T03:09:20;13.23;;;6.40;;
51780;SDS011;37844;57.126;24.288;2023-07-30T03:12:05;9.68;;;6.28;;
51780;SDS011;37844;57.126;24.288;2023-07-30T03:14:49;11.60;;;6.30;;
51780;SDS011;37844;57.126;24.288;2023-07-30T03:17:33;9.52;;;5.90;;
51780;SDS011;37844;57.126;24.288;2023-07-30T03:20:17;13.63;;;5.75;;
51780;SDS011;37844;57.126;24.288;2023-07-30T03:23:01;20.40;;;8.77;;
51780;SDS011;37844;57.126;24.288;2023-07-30T03:25:45;13.05;;;6.60;;
51780;SDS011;37844;57.126;24.288;2023-07-30T03:28:29;10.43;;;6.00;;
51780;SDS011;37844;57.126;24.288;2023-07-30T03:31:13;11.32;;;5.55;;
51780;SDS011;37844;57.126;24.288;2023-07-30T03:33:58;13.85;;;6.80;;
51780;SDS011;37844;57.126;24.288;2023-07-30T03:36:42;13.93;;;6.93;;
51780;SDS011;37844;57.126;24.288;2023-07-30T03:39:26;17.65;;;8.90;;
51780;SDS011;37844;57.126;24.288;2023-07-30T03:42:10;23.02;;;9.88;;
51780;SDS011;37844;57.126;24.288;2023-07-30T03:44:54;10.73;;;5.60;;
51780;SDS011;37844;57.126;24.288;2023-07-30T03:47:38;12.18;;;7.13;;
51780;SDS011;37844;57.126;24.288;2023-07-30T03:50:23;10.85;;;5.85;;
51780;SDS011;37844;57.126;24.288;2023-07-30T03:53:07;13.90;;;6.07;;
51780;SDS011;37844;57.126;24.288;2023-07-30T03:55:51;11.40;;;5.80;;
51780;SDS011;37844;57.126;24.288;2023-07-30T03:58:35;9.43;;;5.72;;
51780;SDS011;37844;57.126;24.288;2023-07-30T04:01:26;10.93;;;4.65;;
51780;SDS011;37844;57.126;24.288;2023-07-30T04:04:11;14.15;;;6.43;;
51780;SDS011;37844;57.126;24.288;2023-07-30T04:06:55;15.02;;;4.95;;
51780;SDS011;37844;57.126;24.288;2023-07-30T04:09:39;11.90;;;5.35;;
51780;SDS011;37844;57.126;24.288;2023-07-30T04:12:23;11.18;;;5.80;;
51780;SDS011;37844;57.126;24.288;2023-07-30T04:15:07;16.05;;;5.57;;
51780;SDS011;37844;57.126;24.288;2023-07-30T04:17:51;10.00;;;6.15;;
51780;SDS011;37844;57.126;24.288;2023-07-30T04:20:35;14.88;;;5.22;;
51780;SDS011;37844;57.126;24.288;2023-07-30T04:23:19;9.50;;;5.35;;
51780;SDS011;37844;57.126;24.288;2023-07-30T04:26:03;9.93;;;5.63;;
51780;SDS011;37844;57.126;24.288;2023-07-30T04:28:47;14.38;;;4.75;;
51780;SDS011;37844;57.126;24.288;2023-07-30T04:31:31;20.42;;;5.32;;
51780;SDS011;37844;57.126;24.288;2023-07-30T04:34:16;8.13;;;4.95;;
51780;SDS011;37844;57.126;24.288;2023-07-30T04:37:00;14.82;;;5.55;;
51780;SDS011;37844;57.126;24.288;2023-07-30T04:39:45;9.90;;;4.10;;
51780;SDS011;37844;57.126;24.288;2023-07-30T04:42:29;11.93;;;4.78;;
51780;SDS011;37844;57.126;24.288;2023-07-30T04:45:13;8.77;;;4.80;;
51780;SDS011;37844;57.126;24.288;2023-07-30T04:47:57;8.77;;;3.97;;
51780;SDS011;37844;57.126;24.288;2023-07-30T04:50:41;13.15;;;4.20;;
51780;SDS011;37844;57.126;24.288;2023-07-30T04:53:25;21.05;;;4.72;;
51780;SDS011;37844;57.126;24.288;2023-07-30T04:56:09;8.52;;;4.10;;
51780;SDS011;37844;57.126;24.288;2023-07-30T04:58:53;7.47;;;3.70;;
51780;SDS011;37844;57.126;24.288;2023-07-30T05:01:37;10.35;;;4.65;;
51780;SDS011;37844;57.126;24.288;2023-07-30T05:04:22;11.32;;;4.07;;
51780;SDS011;37844;57.126;24.288;2023-07-30T05:07:06;16.13;;;4.88;;
51780;SDS011;37844;57.126;24.288;2023-07-30T05:09:49;10.07;;;4.88;;
51780;SDS011;37844;57.126;24.288;2023-07-30T05:12:33;15.25;;;7.82;;
51780;SDS011;37844;57.126;24.288;2023-07-30T05:15:17;17.35;;;8.02;;
51780;SDS011;37844;57.126;24.288;2023-07-30T05:18:01;20.67;;;10.70;;
51780;SDS011;37844;57.126;24.288;2023-07-30T05:20:46;24.45;;;10.20;;
51780;SDS011;37844;57.126;24.288;2023-07-30T05:23:30;14.25;;;5.43;;
51780;SDS011;37844;57.126;24.288;2023-07-30T05:26:14;13.73;;;5.13;;
51780;SDS011;37844;57.126;24.288;2023-07-30T05:28:58;7.53;;;3.95;;
51780;SDS011;37844;57.126;24.288;2023-07-30T05:31:42;9.25;;;4.18;;
51780;SDS011;37844;57.126;24.288;2023-07-30T05:34:26;6.90;;;3.25;;
51780;SDS011;37844;57.126;24.288;2023-07-30T05:37:10;6.70;;;3.20;;
51780;SDS011;37844;57.126;24.288;2023-07-30T05:39:53;5.40;;;2.65;;
51780;SDS011;37844;57.126;24.288;2023-07-30T05:42:37;9.90;;;3.55;;
51780;SDS011;37844;57.126;24.288;2023-07-30T05:45:21;7.18;;;3.53;;
51780;SDS011;37844;57.126;24.288;2023-07-30T05:48:05;9.23;;;2.95;;
51780;SDS011;37844;57.126;24.288;2023-07-30T05:50:49;8.35;;;3.17;;
51780;SDS011;37844;57.126;24.288;2023-07-30T05:53:33;13.65;;;4.13;;
51780;SDS011;37844;57.126;24.288;2023-07-30T05:56:17;10.48;;;4.32;;
51780;SDS011;37844;57.126;24.288;2023-07-30T05:59:02;11.05;;;5.47;;
51780;SDS011;37844;57.126;24.288;2023-07-30T06:01:46;12.95;;;4.38;;
51780;SDS011;37844;57.126;24.288;2023-07-30T06:04:30;18.33;;;4.28;;
51780;SDS011;37844;57.126;24.288;2023-07-30T06:07:14;11.23;;;4.18;;
51780;SDS011;37844;57.126;24.288;2023-07-30T06:09:58;7.95;;;2.95;;
51780;SDS011;37844;57.126;24.288;2023-07-30T06:12:43;7.63;;;2.42;;
51780;SDS011;37844;57.126;24.288;2023-07-30T06:15:27;7.82;;;2.85;;
51780;SDS011;37844;57.126;24.288;2023-07-30T06:18:11;6.05;;;2.70;;
51780;SDS011;37844;57.126;24.288;2023-07-30T06:20:55;6.85;;;2.88;;
51780;SDS011;37844;57.126;24.288;2023-07-30T06:23:39;8.50;;;2.92;;
51780;SDS011;37844;57.126;24.288;2023-07-30T06:26:23;10.38;;;2.83;;
51780;SDS011;37844;57.126;24.288;2023-07-30T06:29:07;9.38;;;2.85;;
51780;SDS011;37844;57.126;24.288;2023-07-30T06:31:51;7.50;;;2.45;;
51780;SDS011;37844;57.126;24.288;2023-07-30T06:34:35;4.75;;;2.60;;
51780;SDS011;37844;57.126;24.288;2023-07-30T06:37:18;7.07;;;2.80;;
51780;SDS011;37844;57.126;24.288;2023-07-30T06:40:03;6.63;;;2.92;;
51780;SDS011;37844;57.126;24.288;2023-07-30T06:42:50;9.02;;;3.00;;
51780;SDS011;37844;57.126;24.288;2023-07-30T06:45:34;4.78;;;2.40;;
51780;SDS011;37844;57.126;24.288;2023-07-30T06:48:18;11.63;;;3.90;;
51780;SDS011;37844;57.126;24.288;2023-07-30T06:51:05;3.67;;;2.17;;
51780;SDS011;37844;57.126;24.288;2023-07-30T06:53:50;4.30;;;2.20;;
51780;SDS011;37844;57.126;24.288;2023-07-30T06:56:34;5.00;;;2.33;;
51780;SDS011;37844;57.126;24.288;2023-07-30T06:59:18;7.50;;;3.05;;
51780;SDS011;37844;57.126;24.288;2023-07-30T07:02:02;5.03;;;2.45;;
51780;SDS011;37844;57.126;24.288;2023-07-30T07:04:48;5.05;;;2.55;;
51780;SDS011;37844;57.126;24.288;2023-07-30T07:07:33;10.05;;;3.25;;
51780;SDS011;37844;57.126;24.288;2023-07-30T07:10:23;5.00;;;2.22;;
51780;SDS011;37844;57.126;24.288;2023-07-30T07:13:07;9.40;;;2.28;;
51780;SDS011;37844;57.126;24.288;2023-07-30T07:15:51;10.00;;;2.55;;
51780;SDS011;37844;57.126;24.288;2023-07-30T07:18:36;3.80;;;1.92;;
51780;SDS011;37844;57.126;24.288;2023-07-30T07:21:20;12.57;;;2.95;;
51780;SDS011;37844;57.126;24.288;2023-07-30T07:24:04;4.72;;;2.25;;
51780;SDS011;37844;57.126;24.288;2023-07-30T07:26:48;7.55;;;3.58;;
51780;SDS011;37844;57.126;24.288;2023-07-30T07:29:32;5.57;;;2.92;;
51780;SDS011;37844;57.126;24.288;2023-07-30T07:32:17;12.73;;;2.70;;
51780;SDS011;37844;57.126;24.288;2023-07-30T07:35:02;8.30;;;2.70;;
51780;SDS011;37844;57.126;24.288;2023-07-30T07:37:46;6.85;;;3.35;;
51780;SDS011;37844;57.126;24.288;2023-07-30T07:40:30;5.07;;;2.90;;
51780;SDS011;37844;57.126;24.288;2023-07-30T07:43:15;9.50;;;3.53;;
51780;SDS011;37844;57.126;24.288;2023-07-30T07:45:59;10.13;;;3.15;;
51780;SDS011;37844;57.126;24.288;2023-07-30T07:48:43;15.07;;;3.10;;
51780;SDS011;37844;57.126;24.288;2023-07-30T07:51:27;7.65;;;3.83;;
51780;SDS011;37844;57.126;24.288;2023-07-30T07:54:11;8.15;;;3.40;;
51780;SDS011;37844;57.126;24.288;2023-07-30T07:56:55;8.60;;;4.72;;
51780;SDS011;37844;57.126;24.288;2023-07-30T07:59:39;8.75;;;3.47;;
51780;SDS011;37844;57.126;24.288;2023-07-30T08:02:25;12.27;;;3.03;;
51780;SDS011;37844;57.126;24.288;2023-07-30T08:05:09;9.07;;;2.92;;
51780;SDS011;37844;57.126;24.288;2023-07-30T08:07:53;6.95;;;3.45;;
51780;SDS011;37844;57.126;24.288;2023-07-30T08:10:38;7.10;;;3.05;;
51780;SDS011;37844;57.126;24.288;2023-07-30T08:13:23;8.70;;;3.33;;
51780;SDS011;37844;57.126;24.288;2023-07-30T08:16:07;5.90;;;2.65;;
51780;SDS011;37844;57.126;24.288;2023-07-30T08:18:51;5.30;;;2.47;;
51780;SDS011;37844;57.126;24.288;2023-07-30T08:21:35;8.43;;;3.17;;
51780;SDS011;37844;57.126;24.288;2023-07-30T08:24:20;8.88;;;3.33;;
51780;SDS011;37844;57.126;24.288;2023-07-30T08:27:04;11.23;;;3.38;;
51780;SDS011;37844;57.126;24.288;2023-07-30T08:29:48;6.55;;;3.45;;
51780;SDS011;37844;57.126;24.288;2023-07-30T08:32:32;7.85;;;3.33;;
51780;SDS011;37844;57.126;24.288;2023-07-30T08:35:16;9.00;;;3.47;;
51780;SDS011;37844;57.126;24.288;2023-07-30T08:38:00;6.97;;;3.67;;
51780;SDS011;37844;57.126;24.288;2023-07-30T08:40:45;7.82;;;3.00;;
51780;SDS011;37844;57.126;24.288;2023-07-30T08:43:29;10.77;;;3.75;;
51780;SDS011;37844;57.126;24.288;2023-07-30T08:46:15;9.48;;;3.30;;
51780;SDS011;37844;57.126;24.288;2023-07-30T08:48:59;7.57;;;3.72;;
51780;SDS011;37844;57.126;24.288;2023-07-30T08:51:43;7.60;;;3.50;;
51780;SDS011;37844;57.126;24.288;2023-07-30T08:54:30;12.10;;;3.50;;
51780;SDS011;37844;57.126;24.288;2023-07-30T08:57:16;18.90;;;3.88;;
51780;SDS011;37844;57.126;24.288;2023-07-30T09:00:03;6.20;;;3.40;;
51780;SDS011;37844;57.126;24.288;2023-07-30T09:02:53;9.38;;;3.85;;
51780;SDS011;37844;57.126;24.288;2023-07-30T09:05:40;14.25;;;3.72;;
51780;SDS011;37844;57.126;24.288;2023-07-30T09:08:24;16.60;;;3.50;;
51780;SDS011;37844;57.126;24.288;2023-07-30T09:11:09;12.80;;;3.97;;
51780;SDS011;37844;57.126;24.288;2023-07-30T09:13:54;7.88;;;3.70;;
51780;SDS011;37844;57.126;24.288;2023-07-30T09:16:41;7.28;;;3.70;;
51780;SDS011;37844;57.126;24.288;2023-07-30T09:19:25;11.35;;;3.70;;
51780;SDS011;37844;57.126;24.288;2023-07-30T09:22:10;8.50;;;4.15;;
51780;SDS011;37844;57.126;24.288;2023-07-30T09:24:55;8.13;;;4.72;;
51780;SDS011;37844;57.126;24.288;2023-07-30T09:27:43;7.15;;;3.63;;
51780;SDS011;37844;57.126;24.288;2023-07-30T09:30:32;13.30;;;3.05;;
51780;SDS011;37844;57.126;24.288;2023-07-30T09:33:18;10.57;;;3.88;;
51780;SDS011;37844;57.126;24.288;2023-07-30T09:36:04;6.57;;;3.00;;
51780;SDS011;37844;57.126;24.288;2023-07-30T09:38:50;12.32;;;3.45;;
51780;SDS011;37844;57.126;24.288;2023-07-30T09:41:35;15.50;;;7.85;;
51780;SDS011;37844;57.126;24.288;2023-07-30T09:44:19;4.70;;;2.95;;
51780;SDS011;37844;57.126;24.288;2023-07-30T09:47:05;22.13;;;4.50;;
51780;SDS011;37844;57.126;24.288;2023-07-30T09:49:53;14.38;;;4.22;;
51780;SDS011;37844;57.126;24.288;2023-07-30T09:52:37;9.98;;;3.55;;
51780;SDS011;37844;57.126;24.288;2023-07-30T09:55:22;14.50;;;3.75;;
51780;SDS011;37844;57.126;24.288;2023-07-30T09:58:06;11.75;;;4.13;;
51780;SDS011;37844;57.126;24.288;2023-07-30T10:00:51;11.05;;;3.53;;
51780;SDS011;37844;57.126;24.288;2023-07-30T10:03:37;12.23;;;3.83;;
51780;SDS011;37844;57.126;24.288;2023-07-30T10:06:21;12.13;;;4.40;;
51780;SDS011;37844;57.126;24.288;2023-07-30T10:09:09;10.13;;;4.60;;
51780;SDS011;37844;57.126;24.288;2023-07-30T10:11:55;15.38;;;9.75;;
51780;SDS011;37844;57.126;24.288;2023-07-30T10:14:42;8.75;;;3.85;;
51780;SDS011;37844;57.126;24.288;2023-07-30T10:17:27;12.93;;;4.05;;
51780;SDS011;37844;57.126;24.288;2023-07-30T10:20:21;7.65;;;3.78;;
51780;SDS011;37844;57.126;24.288;2023-07-30T10:23:07;9.55;;;3.80;;
51780;SDS011;37844;57.126;24.288;2023-07-30T10:25:52;10.90;;;4.65;;
51780;SDS011;37844;57.126;24.288;2023-07-30T10:28:36;9.38;;;3.65;;
51780;SDS011;37844;57.126;24.288;2023-07-30T10:31:23;10.15;;;4.25;;
51780;SDS011;37844;57.126;24.288;2023-07-30T10:34:25;12.27;;;5.50;;
51780;SDS011;37844;57.126;24.288;2023-07-30T10:37:11;7.38;;;4.18;;
51780;SDS011;37844;57.126;24.288;2023-07-30T10:40:12;8.20;;;3.83;;
51780;SDS011;37844;57.126;24.288;2023-07-30T10:43:00;9.15;;;4.03;;
51780;SDS011;37844;57.126;24.288;2023-07-30T10:45:50;8.57;;;3.70;;
51780;SDS011;37844;57.126;24.288;2023-07-30T10:48:36;9.45;;;3.42;;
51780;SDS011;37844;57.126;24.288;2023-07-30T10:51:21;11.45;;;3.85;;
51780;SDS011;37844;57.126;24.288;2023-07-30T10:54:07;7.97;;;4.03;;
51780;SDS011;37844;57.126;24.288;2023-07-30T10:56:52;7.90;;;3.75;;
51780;SDS011;37844;57.126;24.288;2023-07-30T10:59:38;11.60;;;4.70;;
51780;SDS011;37844;57.126;24.288;2023-07-30T11:02:22;8.32;;;4.80;;
51780;SDS011;37844;57.126;24.288;2023-07-30T11:05:15;14.30;;;8.10;;
51780;SDS011;37844;57.126;24.288;2023-07-30T11:07:59;16.80;;;8.10;;
51780;SDS011;37844;57.126;24.288;2023-07-30T11:10:46;20.60;;;7.53;;
51780;SDS011;37844;57.126;24.288;2023-07-30T11:13:37;11.90;;;6.82;;
51780;SDS011;37844;57.126;24.288;2023-07-30T11:16:23;15.20;;;7.22;;
51780;SDS011;37844;57.126;24.288;2023-07-30T11:19:10;15.43;;;7.88;;
51780;SDS011;37844;57.126;24.288;2023-07-30T11:21:55;16.52;;;9.82;;
51780;SDS011;37844;57.126;24.288;2023-07-30T11:24:41;20.45;;;10.73;;
51780;SDS011;37844;57.126;24.288;2023-07-30T11:27:25;18.63;;;11.05;;
51780;SDS011;37844;57.126;24.288;2023-07-30T11:30:09;17.02;;;9.85;;
51780;SDS011;37844;57.126;24.288;2023-07-30T11:32:53;22.25;;;9.52;;
51780;SDS011;37844;57.126;24.288;2023-07-30T11:35:39;17.02;;;8.73;;
51780;SDS011;37844;57.126;24.288;2023-07-30T11:38:24;14.10;;;7.07;;
51780;SDS011;37844;57.126;24.288;2023-07-30T11:41:10;15.98;;;7.55;;
51780;SDS011;37844;57.126;24.288;2023-07-30T11:43:55;13.68;;;6.60;;
51780;SDS011;37844;57.126;24.288;2023-07-30T11:46:39;9.95;;;5.72;;
51780;SDS011;37844;57.126;24.288;2023-07-30T11:49:37;10.60;;;5.60;;
51780;SDS011;37844;57.126;24.288;2023-07-30T11:52:21;12.50;;;4.55;;
51780;SDS011;37844;57.126;24.288;2023-07-30T11:55:06;8.65;;;4.55;;
51780;SDS011;37844;57.126;24.288;2023-07-30T11:57:51;7.63;;;4.22;;
51780;SDS011;37844;57.126;24.288;2023-07-30T12:00:36;13.98;;;4.95;;
51780;SDS011;37844;57.126;24.288;2023-07-30T12:03:21;9.38;;;3.85;;
51780;SDS011;37844;57.126;24.288;2023-07-30T12:06:05;10.43;;;4.85;;
51780;SDS011;37844;57.126;24.288;2023-07-30T12:08:50;8.05;;;4.90;;
51780;SDS011;37844;57.126;24.288;2023-07-30T12:11:35;14.88;;;4.50;;
51780;SDS011;37844;57.126;24.288;2023-07-30T12:17:32;10.95;;;5.47;;
51780;SDS011;37844;57.126;24.288;2023-07-30T12:20:16;18.15;;;5.80;;
51780;SDS011;37844;57.126;24.288;2023-07-30T12:23:01;9.52;;;5.70;;
51780;SDS011;37844;57.126;24.288;2023-07-30T12:25:46;10.45;;;5.63;;
51780;SDS011;37844;57.126;24.288;2023-07-30T12:28:34;8.50;;;4.47;;
51780;SDS011;37844;57.126;24.288;2023-07-30T12:31:18;7.18;;;4.72;;
51780;SDS011;37844;57.126;24.288;2023-07-30T12:34:02;10.25;;;6.20;;
51780;SDS011;37844;57.126;24.288;2023-07-30T12:36:47;12.38;;;5.32;;
51780;SDS011;37844;57.126;24.288;2023-07-30T12:39:30;19.73;;;8.82;;
51780;SDS011;37844;57.126;24.288;2023-07-30T12:42:14;6.75;;;4.40;;
51780;SDS011;37844;57.126;24.288;2023-07-30T12:44:58;9.00;;;5.15;;
51780;SDS011;37844;57.126;24.288;2023-07-30T12:47:42;8.60;;;4.88;;
51780;SDS011;37844;57.126;24.288;2023-07-30T12:50:26;11.25;;;6.32;;
51780;SDS011;37844;57.126;24.288;2023-07-30T12:53:10;6.93;;;4.60;;
51780;SDS011;37844;57.126;24.288;2023-07-30T12:55:54;18.88;;;10.60;;
51780;SDS011;37844;57.126;24.288;2023-07-30T12:58:38;8.30;;;4.68;;
51780;SDS011;37844;57.126;24.288;2023-07-30T13:01:23;9.10;;;4.93;;
51780;SDS011;37844;57.126;24.288;2023-07-30T13:04:07;10.23;;;5.45;;
51780;SDS011;37844;57.126;24.288;2023-07-30T13:06:51;9.95;;;5.32;;
51780;SDS011;37844;57.126;24.288;2023-07-30T13:09:35;10.25;;;5.13;;
51780;SDS011;37844;57.126;24.288;2023-07-30T13:12:19;9.38;;;5.00;;
51780;SDS011;37844;57.126;24.288;2023-07-30T13:15:03;8.35;;;4.47;;
51780;SDS011;37844;57.126;24.288;2023-07-30T13:17:49;7.95;;;4.60;;
51780;SDS011;37844;57.126;24.288;2023-07-30T13:20:33;9.52;;;4.45;;
51780;SDS011;37844;57.126;24.288;2023-07-30T13:23:17;10.57;;;5.38;;
51780;SDS011;37844;57.126;24.288;2023-07-30T13:26:01;8.93;;;4.53;;
51780;SDS011;37844;57.126;24.288;2023-07-30T13:28:46;9.50;;;4.75;;
51780;SDS011;37844;57.126;24.288;2023-07-30T13:31:30;11.35;;;6.00;;
51780;SDS011;37844;57.126;24.288;2023-07-30T13:34:15;9.20;;;5.55;;
51780;SDS011;37844;57.126;24.288;2023-07-30T13:36:59;8.95;;;5.32;;
51780;SDS011;37844;57.126;24.288;2023-07-30T13:39:43;10.05;;;5.47;;
51780;SDS011;37844;57.126;24.288;2023-07-30T13:42:27;9.98;;;5.07;;
51780;SDS011;37844;57.126;24.288;2023-07-30T13:45:11;11.65;;;6.32;;
51780;SDS011;37844;57.126;24.288;2023-07-30T13:47:55;9.50;;;4.88;;
51780;SDS011;37844;57.126;24.288;2023-07-30T13:50:39;7.70;;;4.68;;
51780;SDS011;37844;57.126;24.288;2023-07-30T13:53:23;7.20;;;4.93;;
51780;SDS011;37844;57.126;24.288;2023-07-30T13:56:08;7.93;;;4.72;;
51780;SDS011;37844;57.126;24.288;2023-07-30T13:58:52;7.35;;;4.45;;
51780;SDS011;37844;57.126;24.288;2023-07-30T14:01:36;9.25;;;5.90;;
51780;SDS011;37844;57.126;24.288;2023-07-30T14:04:20;12.98;;;8.95;;
51780;SDS011;37844;57.126;24.288;2023-07-30T14:07:04;7.97;;;4.90;;
51780;SDS011;37844;57.126;24.288;2023-07-30T14:09:48;6.90;;;4.57;;
51780;SDS011;37844;57.126;24.288;2023-07-30T14:12:32;7.20;;;4.60;;
51780;SDS011;37844;57.126;24.288;2023-07-30T14:15:16;7.53;;;4.68;;
51780;SDS011;37844;57.126;24.288;2023-07-30T14:18:00;8.23;;;4.95;;
51780;SDS011;37844;57.126;24.288;2023-07-30T14:20:44;8.98;;;4.55;;
51780;SDS011;37844;57.126;24.288;2023-07-30T14:23:43;8.55;;;4.95;;
51780;SDS011;37844;57.126;24.288;2023-07-30T14:26:34;7.07;;;4.40;;
51780;SDS011;37844;57.126;24.288;2023-07-30T14:29:18;12.02;;;5.10;;
51780;SDS011;37844;57.126;24.288;2023-07-30T14:32:02;6.88;;;4.78;;
51780;SDS011;37844;57.126;24.288;2023-07-30T14:34:47;8.20;;;4.75;;
51780;SDS011;37844;57.126;24.288;2023-07-30T14:37:31;8.10;;;4.85;;
51780;SDS011;37844;57.126;24.288;2023-07-30T14:40:15;9.85;;;5.53;;
51780;SDS011;37844;57.126;24.288;2023-07-30T14:43:06;7.05;;;4.80;;
51780;SDS011;37844;57.126;24.288;2023-07-30T14:45:49;7.53;;;4.57;;
51780;SDS011;37844;57.126;24.288;2023-07-30T14:48:34;6.07;;;4.32;;
51780;SDS011;37844;57.126;24.288;2023-07-30T14:51:18;14.07;;;4.72;;
51780;SDS011;37844;57.126;24.288;2023-07-30T14:54:02;8.43;;;5.07;;
51780;SDS011;37844;57.126;24.288;2023-07-30T14:56:46;7.93;;;4.88;;
51780;SDS011;37844;57.126;24.288;2023-07-30T14:59:31;8.85;;;4.60;;
51780;SDS011;37844;57.126;24.288;2023-07-30T15:02:14;11.15;;;5.82;;
51780;SDS011;37844;57.126;24.288;2023-07-30T15:04:58;8.40;;;4.57;;
51780;SDS011;37844;57.126;24.288;2023-07-30T15:07:42;7.75;;;5.22;;
51780;SDS011;37844;57.126;24.288;2023-07-30T15:10:27;9.05;;;5.30;;
51780;SDS011;37844;57.126;24.288;2023-07-30T15:13:11;8.93;;;6.05;;
51780;SDS011;37844;57.126;24.288;2023-07-30T15:15:55;8.50;;;5.82;;
51780;SDS011;37844;57.126;24.288;2023-07-30T15:18:41;11.05;;;6.07;;
51780;SDS011;37844;57.126;24.288;2023-07-30T15:21:25;10.30;;;6.05;;
51780;SDS011;37844;57.126;24.288;2023-07-30T15:24:09;8.60;;;5.38;;
51780;SDS011;37844;57.126;24.288;2023-07-30T15:26:53;18.88;;;11.85;;
51780;SDS011;37844;57.126;24.288;2023-07-30T15:29:39;10.45;;;6.50;;
51780;SDS011;37844;57.126;24.288;2023-07-30T15:32:23;13.20;;;6.28;;
51780;SDS011;37844;57.126;24.288;2023-07-30T15:35:07;11.15;;;6.45;;
51780;SDS011;37844;57.126;24.288;2023-07-30T15:37:51;10.60;;;5.47;;
51780;SDS011;37844;57.126;24.288;2023-07-30T15:40:36;10.05;;;5.72;;
51780;SDS011;37844;57.126;24.288;2023-07-30T15:43:20;15.30;;;6.18;;
51780;SDS011;37844;57.126;24.288;2023-07-30T15:46:07;15.38;;;6.30;;
51780;SDS011;37844;57.126;24.288;2023-07-30T15:48:52;8.93;;;6.00;;
51780;SDS011;37844;57.126;24.288;2023-07-30T15:51:36;9.23;;;5.82;;
51780;SDS011;37844;57.126;24.288;2023-07-30T15:54:32;10.68;;;6.13;;
51780;SDS011;37844;57.126;24.288;2023-07-30T15:57:18;15.07;;;5.75;;
51780;SDS011;37844;57.126;24.288;2023-07-30T16:00:02;11.93;;;5.82;;
51780;SDS011;37844;57.126;24.288;2023-07-30T16:02:47;19.13;;;7.15;;
51780;SDS011;37844;57.126;24.288;2023-07-30T16:05:31;12.93;;;8.95;;
51780;SDS011;37844;57.126;24.288;2023-07-30T16:08:16;15.73;;;7.70;;
51780;SDS011;37844;57.126;24.288;2023-07-30T16:11:01;11.13;;;6.75;;
51780;SDS011;37844;57.126;24.288;2023-07-30T16:13:48;13.68;;;6.82;;
51780;SDS011;37844;57.126;24.288;2023-07-30T16:16:32;9.90;;;6.78;;